Time;durP1;ratioP1;P1;durP2;ratioP2;P2;SDS_P1;SDS_P2;PMS_P1;PMS_P2;Temp;Humidity;BMP_temperature;BMP_pressure;BME280_temperature;BME280_humidity;BME280_pressure;Samples;Min_cycle;Max_cycle;Signal;HPM_P1;HPM_P2
2024/04/17 00:01:58;;;;;;;10.15;1.98;;;;;;;4.54;100.00;68893.63;5523758;26;19994;-48
2024/04/17 00:04:29;;;;;;;9.70;2.03;;;;;;;4.53;100.00;68895.06;5523479;26;19998;-49
2024/04/17 00:06:56;;;;;;;12.68;2.05;;;;;;;4.53;100.00;68889.91;5523521;26;20495;-47
2024/04/17 00:09:27;;;;;;;13.25;2.20;;;;;;;4.52;100.00;68888.72;5523840;26;20441;-50
2024/04/17 00:11:54;;;;;;;15.02;2.67;;;;;;;4.49;100.00;68888.41;5523627;25;20022;-47
2024/04/17 00:14:25;;;;;;;9.68;2.08;;;;;;;4.44;100.00;68876.84;5522773;26;20037;-47
2024/04/17 00:16:55;;;;;;;8.68;1.90;;;;;;;4.41;100.00;68879.13;5523866;26;20002;-47
2024/04/17 00:19:26;;;;;;;15.65;2.60;;;;;;;4.40;100.00;68878.53;5523603;26;20371;-50
2024/04/17 00:21:54;;;;;;;11.55;2.28;;;;;;;4.43;100.00;68886.63;5489713;26;20004;-48
2024/04/17 00:24:25;;;;;;;19.75;2.92;;;;;;;4.46;100.00;68884.34;5521464;26;20805;-48
2024/04/17 00:26:52;;;;;;;10.25;2.38;;;;;;;4.39;100.00;68874.78;5518975;26;20289;-51
2024/04/17 00:29:23;;;;;;;8.75;1.90;;;;;;;4.33;100.00;68870.41;5522426;26;19989;-49
2024/04/17 00:31:51;;;;;;;7.57;2.42;;;;;;;4.32;100.00;68868.66;5523083;26;20773;-51
2024/04/17 00:34:24;;;;;;;11.95;2.28;;;;;;;4.32;100.00;68866.66;5490225;26;19994;-49
2024/04/17 00:36:52;;;;;;;12.20;2.35;;;;;;;4.26;100.00;68861.72;5523163;25;20013;-48
2024/04/17 00:39:22;;;;;;;8.77;2.35;;;;;;;4.22;100.00;68858.22;5523173;26;19994;-47
2024/04/17 00:41:53;;;;;;;12.02;2.30;;;;;;;4.18;100.00;68850.41;5523126;26;20080;-49
2024/04/17 00:44:26;;;;;;;11.73;2.30;;;;;;;4.19;100.00;68854.72;5523356;26;20456;-48
2024/04/17 00:46:55;;;;;;;11.88;2.20;;;;;;;4.12;100.00;68846.59;5523093;26;19997;-48
2024/04/17 00:49:28;;;;;;;11.15;2.67;;;;;;;4.07;100.00;68840.78;5522662;26;20004;-48
2024/04/17 00:51:56;;;;;;;8.88;2.63;;;;;;;4.03;100.00;68836.16;5523258;26;20069;-47
2024/04/17 00:54:27;;;;;;;11.27;2.70;;;;;;;3.98;100.00;68830.94;5522645;25;19993;-49
2024/04/17 00:56:56;;;;;;;12.88;2.92;;;;;;;3.96;100.00;68828.03;5522276;25;20009;-48
2024/04/17 00:59:26;;;;;;;10.27;2.50;;;;;;;3.98;100.00;68828.34;5517059;26;20061;-47
2024/04/17 01:01:55;;;;;;;9.77;2.60;;;;;;;3.88;100.00;68814.72;5519571;26;20433;-47
2024/04/17 01:04:33;;;;;;;13.90;2.55;;;;;;;3.87;100.00;68813.00;5522682;26;20334;-49
2024/04/17 01:07:03;;;;;;;13.07;2.85;;;;;;;3.79;100.00;68808.88;5522522;26;20562;-47
2024/04/17 01:09:34;;;;;;;8.88;2.22;;;;;;;3.76;100.00;68805.97;5522405;26;20009;-50
2024/04/17 01:12:02;;;;;;;9.85;2.80;;;;;;;3.74;100.00;68803.66;5522402;26;20058;-51
2024/04/17 01:14:32;;;;;;;14.32;2.85;;;;;;;3.71;100.00;68797.59;5522601;26;20029;-49
2024/04/17 01:17:00;;;;;;;10.23;2.40;;;;;;;3.66;100.00;68794.38;5522171;25;20361;-47
2024/04/17 01:19:36;;;;;;;8.30;2.63;;;;;;;3.64;100.00;68792.63;5522088;26;19997;-49
2024/04/17 01:22:04;;;;;;;9.52;2.70;;;;;;;3.59;100.00;68792.00;5522394;26;20743;-49
2024/04/17 01:24:37;;;;;;;9.52;2.63;;;;;;;3.55;100.00;68780.19;5520189;26;20437;-46
2024/04/17 01:27:05;;;;;;;15.07;2.47;;;;;;;3.52;100.00;68779.28;5485089;26;19993;-49
2024/04/17 01:29:36;;;;;;;8.85;2.20;;;;;;;3.49;100.00;68775.22;5487948;26;20906;-46
2024/04/17 01:32:04;;;;;;;8.93;2.60;;;;;;;3.47;100.00;68772.91;5522464;26;19997;-47
2024/04/17 01:34:38;;;;;;;11.82;2.33;;;;;;;3.42;100.00;68762.50;5524499;26;20073;-46
2024/04/17 01:37:06;;;;;;;7.20;2.50;;;;;;;3.45;100.00;68770.56;5491643;26;20441;-47
2024/04/17 01:39:39;;;;;;;9.55;2.53;;;;;;;3.40;100.00;68767.94;5521449;26;20001;-46
2024/04/17 01:42:07;;;;;;;13.18;3.85;;;;;;;3.44;100.00;68766.84;5521556;26;20001;-46
2024/04/17 01:44:37;;;;;;;7.70;2.17;;;;;;;3.45;100.00;68770.56;5524508;26;20068;-48
2024/04/17 01:47:05;;;;;;;11.13;2.47;;;;;;;3.39;100.00;68764.19;5524853;26;20033;-45
2024/04/17 01:49:36;;;;;;;9.65;2.47;;;;;;;3.35;100.00;68757.56;5520385;26;20129;-51
2024/04/17 01:52:04;;;;;;;7.90;2.13;;;;;;;3.29;100.00;68750.03;5522671;26;19989;-49
2024/04/17 01:54:34;;;;;;;11.57;2.72;;;;;;;3.28;100.00;68752.00;5525435;26;20393;-49
2024/04/17 01:57:05;;;;;;;8.63;2.80;;;;;;;3.34;100.00;68758.97;5525799;26;19997;-50
2024/04/17 01:59:35;;;;;;;11.52;2.88;;;;;;;3.31;100.00;68754.91;5525670;26;20002;-52
2024/04/17 02:02:05;;;;;;;10.10;2.33;;;;;;;3.30;100.00;68753.75;5525851;26;19994;-51
2024/04/17 02:04:35;;;;;;;9.68;2.95;;;;;;;3.25;100.00;68747.97;5526106;26;19993;-49
2024/04/17 02:07:03;;;;;;;7.60;2.45;;;;;;;3.22;100.00;68742.47;5525787;26;20354;-50
2024/04/17 02:09:34;;;;;;;13.65;2.75;;;;;;;3.20;100.00;68738.16;5525177;26;20070;-49
2024/04/17 02:12:05;;;;;;;9.80;2.67;;;;;;;3.20;100.00;68742.72;5521162;26;19990;-49
2024/04/17 02:14:35;;;;;;;8.60;2.60;;;;;;;3.18;100.00;68738.41;5522599;26;20017;-50
2024/04/17 02:17:03;;;;;;;8.77;2.67;;;;;;;3.18;100.00;68743.56;5525889;26;19989;-51
2024/04/17 02:19:33;;;;;;;8.63;2.55;;;;;;;3.17;100.00;68736.69;5525410;26;20017;-49
2024/04/17 02:22:01;;;;;;;12.27;2.85;;;;;;;3.14;100.00;68736.34;5525431;26;20594;-49
2024/04/17 02:24:32;;;;;;;7.72;2.65;;;;;;;3.12;100.00;68734.03;5525302;26;20070;-51
2024/04/17 02:27:00;;;;;;;10.73;3.10;;;;;;;3.11;100.00;68727.72;5521740;26;20009;-50
2024/04/17 02:29:33;;;;;;;9.00;3.10;;;;;;;3.12;100.00;68734.03;5520645;26;20016;-49
2024/04/17 02:32:02;;;;;;;9.93;3.03;;;;;;;3.15;100.00;68737.50;5520720;26;20513;-52
2024/04/17 02:34:32;;;;;;;7.90;2.28;;;;;;;3.13;100.00;68737.75;5521097;26;20467;-52
2024/04/17 02:37:00;;;;;;;7.60;2.40;;;;;;;3.15;100.00;68739.50;5523777;26;19998;-52
2024/04/17 02:39:31;;;;;;;9.20;2.72;;;;;;;3.16;100.00;68738.09;5488462;26;20058;-49
2024/04/17 02:41:59;;;;;;;12.13;2.95;;;;;;;3.17;100.00;68739.81;5522561;26;20001;-51
2024/04/17 02:44:32;;;;;;;11.52;3.65;;;;;;;3.19;100.00;68741.56;5524428;26;20512;-49
2024/04/17 02:47:03;;;;;;;12.80;2.97;;;;;;;3.20;100.00;68742.72;5524876;26;19997;-53
2024/04/17 02:49:31;;;;;;;9.40;2.92;;;;;;;3.21;100.00;68746.47;5524964;26;20012;-51
2024/04/17 02:52:01;;;;;;;8.77;2.67;;;;;;;3.27;100.00;68750.84;5523373;26;20021;-53
2024/04/17 02:54:29;;;;;;;9.23;2.60;;;;;;;3.28;100.00;68748.84;5523290;26;20362;-53
2024/04/17 02:57:00;;;;;;;11.98;2.85;;;;;;;3.36;100.00;68760.72;5550399;25;19997;-52
2024/04/17 02:59:30;;;;;;;11.52;2.63;;;;;;;3.38;100.00;68763.63;5521216;26;20350;-50
2024/04/17 03:02:01;;;;;;;15.60;3.13;;;;;;;3.37;100.00;68765.03;5519407;26;20039;-52
2024/04/17 03:04:29;;;;;;;12.60;3.20;;;;;;;3.42;100.00;68767.66;5521258;26;19997;-52
2024/04/17 03:06:59;;;;;;;16.00;3.33;;;;;;;3.42;100.00;68767.66;5517918;26;20364;-49
2024/04/17 03:09:27;;;;;;;9.20;3.28;;;;;;;3.48;100.00;68774.63;5522948;26;20008;-51
2024/04/17 03:11:58;;;;;;;12.40;2.90;;;;;;;3.50;100.00;68776.94;5522071;26;20001;-50
2024/04/17 03:14:25;;;;;;;15.35;4.15;;;;;;;3.52;100.00;68781.88;5520465;25;20037;-50
2024/04/17 03:16:58;;;;;;;14.38;3.30;;;;;;;3.55;100.00;68777.03;5519126;26;19997;-49
2024/04/17 03:19:26;;;;;;;14.63;3.53;;;;;;;3.57;100.00;68783.91;5522091;26;20012;-51
2024/04/17 03:21:57;;;;;;;13.13;3.10;;;;;;;3.60;100.00;68788.00;5521310;26;20487;-50
2024/04/17 03:24:24;;;;;;;13.60;3.60;;;;;;;3.64;100.00;68786.88;5520239;25;20079;-51
2024/04/17 03:26:55;;;;;;;13.23;3.28;;;;;;;3.67;100.00;68793.53;5523311;26;19997;-49
2024/04/17 03:29:23;;;;;;;11.93;3.35;;;;;;;3.71;100.00;68800.75;5524361;26;20076;-51
2024/04/17 03:31:53;;;;;;;12.07;3.80;;;;;;;3.76;100.00;68805.41;5522195;26;20012;-49
2024/04/17 03:34:24;;;;;;;13.82;3.33;;;;;;;3.80;100.00;68810.59;5519948;26;20555;-48
2024/04/17 03:36:57;;;;;;;8.65;2.80;;;;;;;3.85;100.00;68813.84;5485510;26;20001;-48
2024/04/17 03:39:27;;;;;;;11.60;3.17;;;;;;;3.88;100.00;68816.75;5523002;26;20025;-51
2024/04/17 03:42:01;;;;;;;11.18;3.42;;;;;;;3.91;100.00;68822.22;5520160;26;20436;-52
2024/04/17 03:44:31;;;;;;;12.65;3.20;;;;;;;3.94;100.00;68825.69;5520746;26;20008;-52
2024/04/17 03:47:01;;;;;;;10.02;2.45;;;;;;;3.97;100.00;68829.19;5519863;26;20013;-49
2024/04/17 03:49:35;;;;;;;10.05;2.47;;;;;;;4.01;100.00;68833.84;5523408;26;20033;-53
2024/04/17 03:52:02;;;;;;;9.82;2.50;;;;;;;4.05;100.00;68841.06;5518710;26;20021;-51
2024/04/17 03:54:33;;;;;;;8.45;2.92;;;;;;;4.07;100.00;68838.22;5519605;26;20445;-51
2024/04/17 03:57:01;;;;;;;10.68;2.95;;;;;;;4.11;100.00;68842.84;5519630;26;20003;-50
2024/04/17 03:59:31;;;;;;;12.77;3.03;;;;;;;4.15;100.00;68846.94;5489863;26;19993;-50
2024/04/17 04:02:03;;;;;;;7.88;2.50;;;;;;;4.22;100.00;68858.22;5487851;26;19994;-50
2024/04/17 04:04:38;;;;;;;8.60;2.45;;;;;;;4.22;100.00;68853.03;5519719;26;20082;-48
2024/04/17 04:07:06;;;;;;;9.68;2.72;;;;;;;4.27;100.00;68865.44;5485909;26;19993;-49
2024/04/17 04:09:37;;;;;;;8.40;2.70;;;;;;;4.27;100.00;68865.44;5487700;26;20037;-51
2024/04/17 04:12:05;;;;;;;12.52;3.47;;;;;;;4.30;100.00;68866.34;5522316;26;20025;-50
2024/04/17 04:14:36;;;;;;;9.25;2.70;;;;;;;4.32;100.00;68868.66;5523291;26;20441;-51
2024/04/17 04:17:04;;;;;;;11.05;2.20;;;;;;;4.36;100.00;68873.31;5523664;26;19993;-49
2024/04/17 04:19:34;;;;;;;8.77;2.92;;;;;;;4.38;100.00;68881.38;5523604;26;19997;-51
2024/04/17 04:22:05;;;;;;;6.47;2.30;;;;;;;4.39;100.00;68876.78;5523838;26;19997;-50
2024/04/17 04:24:35;;;;;;;5.70;2.80;;;;;;;4.40;100.00;68878.53;5524077;26;20037;-51
2024/04/17 04:27:03;;;;;;;5.90;2.10;;;;;;;4.44;100.00;68882.03;5519786;26;19997;-50
2024/04/17 04:29:33;;;;;;;9.13;1.92;;;;;;;4.43;100.00;68878.28;5519228;26;20012;-51
2024/04/17 04:32:01;;;;;;;7.93;2.90;;;;;;;4.45;100.00;68883.19;5519677;26;20452;-49
2024/04/17 04:34:34;;;;;;;8.20;2.20;;;;;;;4.50;100.00;68888.97;5521633;26;20433;-50
2024/04/17 04:37:04;;;;;;;3.53;1.50;;;;;;;4.47;100.00;68888.69;5523299;26;19993;-49
2024/04/17 04:39:35;;;;;;;6.40;2.13;;;;;;;4.53;100.00;68890.47;5549677;25;20405;-49
2024/04/17 04:42:03;;;;;;;5.68;1.90;;;;;;;4.51;100.00;68890.16;5486476;26;20501;-50
2024/04/17 04:44:33;;;;;;;7.75;2.10;;;;;;;4.54;100.00;68893.63;5517213;25;19998;-49
2024/04/17 04:47:01;;;;;;;7.18;1.90;;;;;;;4.59;100.00;68898.88;5518415;26;20405;-47
2024/04/17 04:49:32;;;;;;;10.38;2.60;;;;;;;4.61;100.00;68901.19;5519361;25;20026;-47
2024/04/17 04:52:00;;;;;;;6.40;2.33;;;;;;;4.62;100.00;68905.53;5520597;26;19998;-48
2024/04/17 04:54:33;;;;;;;7.50;3.00;;;;;;;4.62;100.00;68902.34;5522840;26;19993;-49
2024/04/17 04:57:00;;;;;;;7.97;3.03;;;;;;;4.61;100.00;68896.00;5522945;26;20445;-50
2024/04/17 04:59:31;;;;;;;6.70;2.90;;;;;;;4.61;100.00;68901.78;5522031;26;19994;-46
2024/04/17 05:01:58;;;;;;;11.13;3.13;;;;;;;4.62;100.00;68902.94;5522633;26;20378;-46
2024/04/17 05:04:29;;;;;;;6.57;2.78;;;;;;;4.63;100.00;68900.94;5522466;26;19993;-46
2024/04/17 05:06:57;;;;;;;5.72;2.20;;;;;;;4.59;100.00;68899.44;5522444;26;20001;-47
2024/04/17 05:09:28;;;;;;;4.82;1.90;;;;;;;4.53;100.00;68889.91;5520653;26;20007;-46
2024/04/17 05:11:58;;;;;;;4.60;1.70;;;;;;;4.56;100.00;68895.97;5522298;26;20062;-46
2024/04/17 05:14:29;;;;;;;6.05;1.83;;;;;;;4.59;100.00;68896.28;5522526;26;20004;-47
2024/04/17 05:16:56;;;;;;;5.28;1.73;;;;;;;4.65;100.00;68906.41;5522546;25;20021;-47
2024/04/17 05:19:27;;;;;;;3.08;1.33;;;;;;;4.67;100.00;68906.16;5521371;26;19993;-49
2024/04/17 05:21:55;;;;;;;5.22;1.45;;;;;;;4.70;100.00;68909.66;5484821;26;20444;-49
2024/04/17 05:24:25;;;;;;;3.42;1.40;;;;;;;4.73;100.00;68915.13;5517682;26;20356;-49
2024/04/17 05:26:58;;;;;;;6.03;1.50;;;;;;;4.72;100.00;68911.38;5520265;26;19993;-51
2024/04/17 05:29:28;;;;;;;6.72;1.40;;;;;;;4.76;100.00;68918.63;5522095;26;20008;-49
2024/04/17 05:31:56;;;;;;;6.05;1.65;;;;;;;4.77;100.00;68919.19;5522532;26;19997;-51
2024/04/17 05:34:27;;;;;;;4.75;1.30;;;;;;;4.78;100.00;68917.78;5520657;26;20441;-51
2024/04/17 05:36:55;;;;;;;4.53;1.85;;;;;;;4.75;100.00;68920.03;5516066;26;20042;-50
2024/04/17 05:39:26;;;;;;;3.78;1.55;;;;;;;4.79;100.00;68921.53;5519406;26;19997;-53
2024/04/17 05:41:53;;;;;;;4.10;1.67;;;;;;;4.77;100.00;68922.34;5522331;25;19997;-51
2024/04/17 05:44:26;;;;;;;5.35;1.98;;;;;;;4.79;100.00;68922.09;5522423;26;19998;-50
2024/04/17 05:46:57;;;;;;;4.22;1.60;;;;;;;4.82;100.00;68925.56;5521516;26;20057;-49
2024/04/17 05:49:24;;;;;;;4.78;1.33;;;;;;;4.83;100.00;68924.16;5517712;26;20364;-49
2024/04/17 05:51:55;;;;;;;4.57;1.00;;;;;;;4.78;100.00;68918.34;5515054;26;20246;-51
2024/04/17 05:54:23;;;;;;;3.67;0.90;;;;;;;4.75;100.00;68914.88;5517399;26;20344;-50
2024/04/17 05:56:53;;;;;;;4.45;1.10;;;;;;;4.77;100.00;68919.75;5518075;26;20065;-48
2024/04/17 05:59:23;;;;;;;2.80;0.93;;;;;;;4.82;100.00;68925.56;5520808;26;20023;-53
2024/04/17 06:01:54;;;;;;;3.13;0.90;;;;;;;4.85;100.00;68929.06;5484505;26;20001;-53
2024/04/17 06:04:22;;;;;;;4.60;1.00;;;;;;;4.93;100.00;68937.78;5517433;26;20066;-53
2024/04/17 06:06:53;;;;;;;3.10;1.00;;;;;;;5.00;100.00;68942.75;5482274;26;20734;-52
2024/04/17 06:09:21;;;;;;;3.08;0.82;;;;;;;5.03;100.00;68948.81;5517222;26;19993;-50
2024/04/17 06:11:51;;;;;;;2.70;0.93;;;;;;;5.06;100.00;68950.28;5521496;26;20002;-49
2024/04/17 06:14:19;;;;;;;2.65;0.90;;;;;;;5.16;100.00;68960.75;5489179;26;20012;-49
2024/04/17 06:16:51;;;;;;;2.72;1.00;;;;;;;5.22;100.00;68970.31;5518935;26;20001;-48
2024/04/17 06:19:20;;;;;;;3.38;1.27;;;;;;;5.28;100.00;68974.13;5517243;26;19993;-49
2024/04/17 06:21:50;;;;;;;4.65;1.10;;;;;;;5.42;100.00;68990.38;5516967;25;20001;-50
2024/04/17 06:24:18;;;;;;;1.67;0.70;;;;;;;5.35;100.00;68982.25;5492961;26;20008;-50
2024/04/17 06:26:48;;;;;;;3.63;0.90;;;;;;;5.39;100.00;68984.31;5525284;26;20001;-48
2024/04/17 06:29:16;;;;;;;4.25;1.00;;;;;;;5.45;100.00;68996.47;5525337;26;19994;-46
2024/04/17 06:31:46;;;;;;;2.80;0.80;;;;;;;5.48;100.00;68999.97;5524649;26;20576;-49
2024/04/17 06:34:19;;;;;;;3.22;0.77;;;;;;;5.49;100.00;69001.09;5525096;26;20007;-47
2024/04/17 06:36:47;;;;;;;4.35;1.08;;;;;;;5.52;100.00;69004.59;5492665;26;20005;-46
2024/04/17 06:39:17;;;;;;;3.08;1.63;;;;;;;5.55;100.00;69002.91;5524773;26;20005;-49
2024/04/17 06:41:45;;;;;;;5.25;0.80;;;;;;;5.57;100.00;69010.41;5522625;26;20456;-48
2024/04/17 06:44:30;;;;;;;2.63;0.85;;;;;;;5.66;100.00;69017.13;5520395;26;20013;-49
2024/04/17 06:46:58;;;;;;;2.55;0.90;;;;;;;5.68;100.00;69022.03;5523889;26;20009;-49
2024/04/17 06:49:31;;;;;;;4.05;0.80;;;;;;;5.75;100.00;69025.59;5519763;26;20429;-47
2024/04/17 06:51:59;;;;;;;5.22;1.00;;;;;;;5.82;100.00;69037.72;5519671;26;20008;-50
2024/04/17 06:54:29;;;;;;;4.03;1.10;;;;;;;5.82;100.00;69035.72;5524733;26;19994;-47
2024/04/17 06:56:57;;;;;;;1.70;0.90;;;;;;;5.84;100.00;69040.63;5525003;26;19997;-46
2024/04/17 06:59:30;;;;;;;4.13;1.05;;;;;;;5.92;100.00;69044.75;5524614;26;20485;-48
2024/04/17 07:01:58;;;;;;;3.53;1.10;;;;;;;5.95;100.00;69049.69;5523591;25;20440;-47
2024/04/17 07:04:32;;;;;;;3.30;0.90;;;;;;;6.01;100.00;69059.25;5519351;26;20001;-47
2024/04/17 07:07:00;;;;;;;4.28;0.90;;;;;;;6.07;100.00;69066.25;5518345;26;20005;-47
2024/04/17 07:09:30;;;;;;;5.22;1.20;;;;;;;6.17;100.00;69075.28;5491137;26;20009;-46
2024/04/17 07:11:58;;;;;;;2.97;0.93;;;;;;;6.31;100.00;69090.97;5524566;26;20030;-46
2024/04/17 07:14:29;;;;;;;4.00;1.23;;;;;;;6.42;100.00;69103.19;5523689;26;20046;-46
2024/04/17 07:16:57;;;;;;;4.25;1.77;;;;;;;6.60;100.00;69121.53;5524815;26;20097;-47
2024/04/17 07:19:31;;;;;;;3.78;0.90;;;;;;;6.71;100.00;69138.38;5553017;25;20042;-46
2024/04/17 07:21:59;;;;;;;4.68;1.30;;;;;;;6.78;100.00;69143.91;5524459;26;20001;-46
2024/04/17 07:24:30;;;;;;;3.97;1.17;;;;;;;6.92;100.00;69157.03;5524388;26;20025;-46
2024/04/17 07:26:57;;;;;;;3.50;1.15;;;;;;;6.98;100.00;69166.63;5524233;26;20008;-47
2024/04/17 07:29:28;;;;;;;6.43;1.27;;;;;;;7.06;100.00;69178.53;5523993;26;19993;-47
2024/04/17 07:31:55;;;;;;;5.78;1.38;;;;;;;7.21;100.00;69190.22;5524077;26;20017;-46
2024/04/17 07:34:26;;;;;;;4.10;1.20;;;;;;;7.35;100.00;69210.53;5521219;25;20543;-47
2024/04/17 07:36:57;;;;;;;2.80;1.17;;;;;;;7.47;100.00;69224.50;5517432;25;20004;-48
2024/04/17 07:39:27;;;;;;;6.78;1.40;;;;;;;7.59;100.00;69235.88;5523634;26;20356;-47
2024/04/17 07:41:55;;;;;;;5.03;1.30;;;;;;;7.70;100.00;69250.72;5553414;25;20002;-49
2024/04/17 07:44:26;;;;;;;3.78;1.20;;;;;;;7.73;100.00;69254.19;5523923;26;20012;-51
2024/04/17 07:46:53;;;;;;;5.38;1.45;;;;;;;7.80;100.00;69256.56;5524107;26;20388;-50
2024/04/17 07:49:24;;;;;;;7.47;1.55;;;;;;;7.82;100.00;69256.28;5523582;25;20009;-46
2024/04/17 07:51:52;;;;;;;5.28;1.58;;;;;;;7.92;100.00;69270.53;5491505;26;20005;-46
2024/04/17 07:54:25;;;;;;;4.72;1.70;;;;;;;8.08;100.00;69293.78;5523971;26;20005;-47
2024/04/17 07:56:53;;;;;;;5.78;1.73;;;;;;;8.33;100.00;69321.16;5523958;26;20453;-46
2024/04/17 07:59:24;;;;;;;10.77;2.22;;;;;;;8.45;100.00;69335.16;5524173;26;20073;-46
2024/04/17 08:01:53;;;;;;;7.97;2.20;;;;;;;8.62;100.00;69352.38;5523729;26;20041;-48
2024/04/17 08:04:23;;;;;;;6.97;1.77;;;;;;;8.88;100.00;69378.91;5522316;26;20004;-46
2024/04/17 08:06:51;;;;;;;9.07;2.10;;;;;;;9.07;100.00;69408.28;5517262;26;19994;-46
2024/04/17 08:09:22;;;;;;;6.55;2.10;;;;;;;9.29;100.00;69425.53;5521191;26;20005;-46
2024/04/17 08:11:52;;;;;;;6.82;1.70;;;;;;;9.53;100.00;69454.97;5523409;25;20017;-46
2024/04/17 08:14:23;;;;;;;7.10;1.70;;;;;;;9.71;100.00;69474.81;5524006;26;20376;-46
2024/04/17 08:16:51;;;;;;;9.27;1.90;;;;;;;9.76;100.00;69478.00;5523678;26;19994;-46
2024/04/17 08:19:21;;;;;;;5.57;1.50;;;;;;;9.72;100.00;69475.97;5523536;26;20077;-47
2024/04/17 08:21:49;;;;;;;6.70;1.50;;;;;;;9.82;100.00;69490.81;5523459;26;20452;-46
2024/04/17 08:24:20;;;;;;;6.63;1.45;;;;;;;9.98;100.00;69503.09;5523456;26;20022;-47
2024/04/17 08:26:48;;;;;;;5.68;1.40;;;;;;;10.12;100.00;69521.47;5523351;26;19993;-50
2024/04/17 08:29:21;;;;;;;10.40;2.05;;;;;;;10.29;100.00;69543.91;5523265;26;20008;-46
2024/04/17 08:31:49;;;;;;;6.45;1.40;;;;;;;10.51;100.00;69565.81;5523495;26;20029;-46
2024/04/17 08:34:19;;;;;;;7.05;1.50;;;;;;;10.79;100.00;69597.34;5522819;26;19993;-46
2024/04/17 08:36:47;;;;;;;7.30;1.60;;;;;;;10.75;100.00;69595.84;5520310;26;20388;-49
2024/04/17 08:39:17;;;;;;;8.30;2.05;;;;;;;10.64;100.00;69578.38;5518598;26;19997;-46
2024/04/17 08:41:49;;;;;;;7.03;1.33;;;;;;;10.59;100.00;69571.97;5519135;26;20328;-47
2024/04/17 08:44:32;;;;;;;9.38;1.50;;;;;;;10.68;100.00;69581.91;5518713;25;20333;-46
2024/04/17 08:47:00;;;;;;;;;;;;;;;10.54;100.00;69566.72;5523995;26;19998;-48
2024/04/17 08:49:32;;;;;;;7.60;1.45;;;;;;;10.46;100.00;69560.00;5523591;26;19924;-45
2024/04/17 08:52:01;;;;;;;7.40;1.40;;;;;;;10.42;100.00;69555.91;5523215;25;19989;-47
2024/04/17 08:54:33;;;;;;;7.15;1.23;;;;;;;10.57;100.00;69570.22;5523522;26;20009;-46
2024/04/17 08:57:01;;;;;;;5.50;1.45;;;;;;;10.54;100.00;69568.72;5523067;26;19993;-45
2024/04/17 08:59:34;;;;;;;11.05;1.95;;;;;;;10.56;100.00;69574.25;5522894;25;19997;-45
2024/04/17 09:02:03;;;;;;;7.65;1.35;;;;;;;10.34;100.00;69549.16;5522889;26;20001;-47
2024/04/17 09:04:33;;;;;;;7.55;1.42;;;;;;;10.25;100.00;69536.03;5522818;26;20012;-46
2024/04/17 09:07:02;;;;;;;6.80;1.08;;;;;;;10.08;100.00;69511.59;5522936;26;20008;-48
2024/04/17 09:09:32;;;;;;;6.32;1.20;;;;;;;9.88;100.00;69494.63;5522724;26;19998;-47
2024/04/17 09:12:01;;;;;;;5.43;1.10;;;;;;;9.81;100.00;69489.06;5522673;26;19989;-49
2024/04/17 09:14:34;;;;;;;4.80;1.30;;;;;;;9.71;100.00;69472.19;5519078;26;20005;-50
2024/04/17 09:17:17;;;;;;;7.32;1.30;;;;;;;9.64;100.00;69465.19;5486152;26;20002;-46
2024/04/17 09:19:47;;;;;;;7.25;1.30;;;;;;;9.61;100.00;69464.31;5523024;25;19998;-49
2024/04/17 09:22:15;;;;;;;6.72;1.10;;;;;;;9.58;100.00;69462.81;5522845;26;20004;-47
2024/04/17 09:24:45;;;;;;;6.75;0.90;;;;;;;9.50;100.00;69456.09;5521988;25;20394;-48
2024/04/17 09:27:15;;;;;;;7.35;1.50;;;;;;;9.39;100.00;69441.81;5522439;26;19998;-51
2024/04/17 09:29:47;;;;;;;9.88;1.85;;;;;;;9.37;100.00;69436.91;5522344;26;20008;-51
2024/04/17 09:32:18;;;;;;;4.10;1.23;;;;;;;9.56;100.00;69457.91;5521150;26;20350;-50
2024/04/17 09:34:48;;;;;;;5.20;1.10;;;;;;;9.75;100.00;69479.47;5516751;26;20005;-48
2024/04/17 09:37:16;;;;;;;4.93;1.17;;;;;;;10.17;100.00;69527.31;5520153;26;19994;-50
2024/04/17 09:39:49;;;;;;;9.40;1.40;;;;;;;10.49;100.00;69563.50;5522407;26;20325;-49
2024/04/17 09:42:16;;;;;;;5.38;1.50;;;;;;;10.70;100.00;69589.44;5522407;26;19997;-48
2024/04/17 09:44:51;;;;;;;4.57;1.17;;;;;;;10.98;100.00;69619.50;5522097;26;20386;-49
2024/04/17 09:47:20;;;;;;;2.22;0.85;;;;;;;10.86;100.00;69605.50;5489551;26;19997;-48
2024/04/17 09:49:56;;;;;;;3.75;0.98;;;;;;;10.44;100.00;69557.66;5522177;26;20452;-48
2024/04/17 09:52:26;;;;;;;3.70;0.70;;;;;;;10.29;100.00;69543.91;5521800;25;20774;-49
2024/04/17 09:54:58;;;;;;;3.53;0.68;;;;;;;10.69;100.00;69588.88;5523664;26;20001;-49
2024/04/17 09:57:27;;;;;;;5.30;0.98;;;;;;;10.80;100.00;69601.13;5525759;26;20328;-46
2024/04/17 10:00:04;;;;;;;4.43;0.85;;;;;;;10.66;100.00;69585.34;5524965;26;19994;-47
2024/04/17 10:02:32;;;;;;;5.22;0.77;;;;;;;10.46;100.00;69562.59;5492820;25;20004;-47
2024/04/17 10:05:05;;;;;;;3.15;0.80;;;;;;;10.28;100.00;69536.94;5525226;26;20008;-46
2024/04/17 10:07:37;;;;;;;1.48;0.52;;;;;;;10.17;100.00;69526.69;5523784;26;20016;-46
2024/04/17 10:10:09;;;;;;;2.00;0.75;;;;;;;10.14;100.00;69524.38;5521539;25;20005;-47
2024/04/17 10:12:43;;;;;;;4.82;0.80;;;;;;;10.18;100.00;69530.47;5524350;26;20001;-45
2024/04/17 10:15:16;;;;;;;2.17;0.80;;;;;;;10.14;100.00;69524.38;5525340;26;20021;-48
2024/04/17 10:17:44;;;;;;;1.55;0.90;;;;;;;10.09;100.00;69515.34;5525799;26;20034;-46
2024/04/17 10:20:31;;;;;;;1.48;0.65;;;;;;;10.13;100.00;69525.25;5492729;26;19993;-46
2024/04/17 10:23:06;;;;;;;2.35;0.75;;;;;;;10.10;100.00;69524.34;5525594;26;20081;-46
2024/04/17 10:25:37;;;;;;;5.25;1.15;;;;;;;9.70;100.00;69471.03;5525215;25;20001;-46
2024/04/17 10:28:10;;;;;;;;;;;;;;;9.40;100.00;69443.00;5493565;26;19997;-47
2024/04/17 10:30:50;;;;;;;4.45;0.88;;;;;;;9.00;100.00;69394.34;5525766;26;20280;-46
2024/04/17 10:33:26;;;;;;;1.50;0.70;;;;;;;8.63;100.00;69352.97;5525328;26;20012;-46
2024/04/17 10:35:57;;;;;;;2.28;0.60;;;;;;;8.47;100.00;69337.50;5525593;26;19997;-47
2024/04/17 10:38:26;;;;;;;2.65;0.70;;;;;;;8.21;100.00;69310.38;5492383;26;20001;-49
2024/04/17 10:41:05;;;;;;;1.48;0.80;;;;;;;8.11;100.00;69299.88;5525160;26;20321;-47
2024/04/17 10:43:35;;;;;;;1.67;0.60;;;;;;;8.19;100.00;69303.41;5525242;26;20005;-46
2024/04/17 10:46:12;;;;;;;3.50;0.98;;;;;;;8.26;100.00;69313.59;5524637;26;20037;-47
2024/04/17 10:48:43;;;;;;;5.03;1.00;;;;;;;8.11;100.00;69294.09;5525180;25;20008;-47
2024/04/17 10:51:17;;;;;;;3.38;1.17;;;;;;;7.93;100.00;69273.72;5524927;26;20164;-50
2024/04/17 10:53:46;;;;;;;3.17;1.30;;;;;;;8.20;100.00;69301.97;5524913;26;20001;-46
2024/04/17 10:56:18;;;;;;;2.47;0.90;;;;;;;8.27;100.00;69310.13;5524982;25;20066;-47
2024/04/17 10:58:46;;;;;;;5.18;1.00;;;;;;;8.44;100.00;69334.00;5524890;26;20005;-48
2024/04/17 11:01:19;;;;;;;3.83;1.05;;;;;;;8.56;100.00;69348.00;5519950;25;20420;-48
2024/04/17 11:03:47;;;;;;;4.57;0.90;;;;;;;8.75;100.00;69366.34;5521378;26;19997;-47
2024/04/17 11:06:18;;;;;;;1.58;0.70;;;;;;;8.97;100.00;69391.41;5521201;26;20425;-48
2024/04/17 11:08:47;;;;;;;3.50;0.90;;;;;;;9.22;100.00;69414.22;5520167;26;20033;-46
2024/04/17 11:11:28;;;;;;;3.30;0.75;;;;;;;9.55;100.00;69456.72;5523770;26;20044;-48
2024/04/17 11:13:56;;;;;;;3.50;1.30;;;;;;;9.94;100.00;69504.22;5524436;26;20016;-48
2024/04/17 11:16:29;;;;;;;3.50;1.00;;;;;;;10.06;100.00;69515.03;5524369;26;20012;-49
2024/04/17 11:18:58;;;;;;;2.67;0.80;;;;;;;10.11;100.00;69523.47;5491923;26;20441;-48
2024/04/17 11:21:28;;;;;;;2.28;0.95;;;;;;;10.36;100.00;69548.91;5524886;26;20013;-51
2024/04/17 11:23:56;;;;;;;1.88;0.80;;;;;;;10.65;100.00;69581.59;5524463;26;20835;-51
2024/04/17 11:26:27;;;;;;;2.92;0.60;;;;;;;10.69;100.00;69586.25;5524384;26;20065;-47
2024/04/17 11:28:54;;;;;;;2.22;0.63;;;;;;;11.01;100.00;69621.84;5524543;26;20025;-47
2024/04/17 11:31:25;;;;;;;2.00;0.50;;;;;;;11.36;100.00;69664.16;5489276;26;20004;-47
2024/04/17 11:33:55;;;;;;;1.45;0.52;;;;;;;11.73;100.00;69698.38;5520401;26;20480;-46
2024/04/17 11:36:26;;;;;;;2.50;0.90;;;;;;;11.95;100.00;69728.75;5517182;26;19999;-48
2024/04/17 11:38:54;;;;;;;2.85;0.80;;;;;;;12.11;100.00;69749.47;5520384;26;20017;-46
2024/04/17 11:41:24;;;;;;;2.20;0.70;;;;;;;12.42;100.00;69784.53;5523938;25;19989;-48
2024/04/17 11:43:52;;;;;;;1.38;0.50;;;;;;;12.46;100.00;69786.59;5522778;26;20001;-49
2024/04/17 11:46:23;;;;;;;2.95;0.77;;;;;;;12.91;100.00;69835.44;5518734;26;19997;-46